createdAt,value
2022-10-09T00:01:50.911Z,14.7
2022-10-09T00:06:33.079Z,15.7
2022-10-09T00:11:15.390Z,17.2
2022-10-09T00:15:57.722Z,15.3
2022-10-09T00:20:39.913Z,15.8
2022-10-09T00:25:22.295Z,13.1
2022-10-09T00:30:04.495Z,14.7
2022-10-09T00:34:46.808Z,15.4
2022-10-09T00:39:29.093Z,12.8
2022-10-09T00:44:11.477Z,11.3
2022-10-09T00:48:53.610Z,10.1
2022-10-09T00:53:34.895Z,10
2022-10-09T00:58:17.209Z,10
2022-10-09T01:02:59.520Z,10.6
2022-10-09T01:07:41.729Z,10.2
2022-10-09T01:12:24.121Z,10.7
2022-10-09T01:17:06.338Z,12
2022-10-09T01:21:48.641Z,12
2022-10-09T01:26:29.925Z,11
2022-10-09T01:31:11.234Z,11.6
2022-10-09T01:35:53.552Z,11.4
2022-10-09T01:40:34.863Z,13.5
2022-10-09T01:45:16.197Z,13.3
2022-10-09T01:49:58.428Z,14.1
2022-10-09T01:54:40.650Z,13.9
2022-10-09T01:59:22.977Z,14.1
2022-10-09T02:04:05.221Z,16.29
2022-10-09T02:08:47.560Z,17.79
2022-10-09T02:13:29.834Z,15.8
2022-10-09T02:18:12.102Z,15.8
2022-10-09T02:22:54.469Z,16.7
2022-10-09T02:27:36.617Z,17.29
2022-10-09T02:32:18.934Z,18.6
2022-10-09T02:37:01.264Z,18.2
2022-10-09T02:41:43.498Z,15.6
2022-10-09T02:46:24.771Z,15.9
2022-10-09T02:51:07.100Z,16.2
2022-10-09T02:55:49.392Z,17
2022-10-09T03:00:31.616Z,18.1
2022-10-09T03:05:13.915Z,17.5
2022-10-09T03:09:56.262Z,14.8
2022-10-09T03:14:38.549Z,12.9
2022-10-09T03:19:19.853Z,16.5
2022-10-09T03:24:01.188Z,15.3
2022-10-09T03:28:43.424Z,15.8
2022-10-09T03:33:24.685Z,16.4
2022-10-09T03:38:05.995Z,16
2022-10-09T03:42:48.259Z,16
2022-10-09T03:47:30.569Z,16.2
2022-10-09T03:52:12.881Z,14.7
2022-10-09T03:56:55.086Z,19
2022-10-09T04:01:37.431Z,17
2022-10-09T04:06:19.730Z,15.3
2022-10-09T04:11:01.936Z,18.2
2022-10-09T04:15:44.287Z,17.7
2022-10-09T04:20:26.493Z,19.79
2022-10-09T04:25:08.810Z,21.9
2022-10-09T04:29:51.144Z,20.29
2022-10-09T04:34:33.352Z,20.6
2022-10-09T04:39:14.647Z,17.79
2022-10-09T04:43:56.951Z,18.6
2022-10-09T04:48:39.270Z,16.7
2022-10-09T04:53:21.477Z,18.6
2022-10-09T04:58:03.793Z,18
2022-10-09T05:02:46.098Z,17.6
2022-10-09T05:07:28.410Z,16.7
2022-10-09T05:12:09.722Z,17.79
2022-10-09T05:16:50.982Z,17.79
2022-10-09T05:21:33.306Z,16
2022-10-09T05:26:15.586Z,18.4
2022-10-09T05:30:56.869Z,20
2022-10-09T05:35:38.182Z,20.5
2022-10-09T05:40:20.393Z,19.9
2022-10-09T05:45:02.732Z,19.5
2022-10-09T05:49:45.094Z,20.2
2022-10-09T05:54:27.379Z,20.2
2022-10-09T05:59:09.585Z,18.9
2022-10-09T06:03:51.800Z,18.29
2022-10-09T06:08:34.117Z,15.5
2022-10-09T06:13:16.427Z,16.1
2022-10-09T06:17:58.633Z,16.4
2022-10-09T06:22:41.026Z,15.9
2022-10-09T06:27:23.279Z,16.1
2022-10-09T06:32:05.574Z,15.2
2022-10-09T06:36:46.781Z,18.29
2022-10-09T06:41:29.132Z,14.4
2022-10-09T06:46:11.407Z,16.1
2022-10-09T06:50:53.617Z,15.7
2022-10-09T06:55:35.940Z,15.1
2022-10-09T07:00:18.251Z,14.3
2022-10-09T07:05:00.555Z,12.3
2022-10-09T07:09:41.864Z,9.1
2022-10-09T07:14:23.120Z,7.8
2022-10-09T07:19:05.436Z,6.1
2022-10-09T07:23:46.745Z,5.7
2022-10-09T07:28:28.107Z,4.8
2022-10-09T07:33:10.371Z,5.3
2022-10-09T07:37:52.577Z,4.8
2022-10-09T07:42:34.889Z,4.3
2022-10-09T07:47:17.184Z,4
2022-10-09T07:51:59.428Z,4
2022-10-09T07:56:41.717Z,4.3
2022-10-09T08:01:23.986Z,4
2022-10-09T08:06:06.275Z,3.3
2022-10-09T08:10:48.513Z,3.2
2022-10-09T08:15:30.820Z,2.6
2022-10-09T08:20:13.073Z,3
2022-10-09T08:24:55.410Z,2.8
2022-10-09T08:29:36.665Z,2.8
2022-10-09T08:34:18.978Z,2.9
2022-10-09T08:39:01.184Z,2.3
2022-10-09T08:43:43.549Z,2.3
2022-10-09T08:48:25.842Z,1.9
2022-10-09T08:53:08.126Z,2.09
2022-10-09T08:57:50.330Z,1.6
2022-10-09T09:02:31.641Z,2
2022-10-09T09:07:13.027Z,1.7
2022-10-09T09:11:54.265Z,1.4
2022-10-09T09:16:35.524Z,2
2022-10-09T09:21:17.847Z,1.4
2022-10-09T09:26:00.197Z,1.8
2022-10-09T09:30:42.368Z,1.7
2022-10-09T09:35:24.675Z,1.3
2022-10-09T09:40:06.986Z,1.6
2022-10-09T09:44:49.199Z,1.4
2022-10-09T09:49:31.508Z,1.3
2022-10-09T09:54:13.823Z,1.3
2022-10-09T09:58:56.031Z,0.9
2022-10-09T10:03:38.308Z,1.6
2022-10-09T10:08:20.627Z,1
2022-10-09T10:13:02.979Z,1
2022-10-09T10:17:44.183Z,1
2022-10-09T10:22:26.496Z,1.7
2022-10-09T10:27:08.786Z,1.4
2022-10-09T10:31:51.077Z,0.7
2022-10-09T10:36:33.373Z,0.8
2022-10-09T10:41:15.637Z,0.8
2022-10-09T10:45:57.945Z,0.8
2022-10-09T10:50:39.316Z,0.6
2022-10-09T10:55:20.426Z,1
2022-10-09T11:00:02.752Z,1.1
2022-10-09T11:04:44.054Z,0.8
2022-10-09T11:09:25.419Z,0.7
2022-10-09T11:14:07.731Z,0.7
2022-10-09T11:18:49.917Z,0.9
2022-10-09T11:23:32.250Z,0.3
2022-10-09T11:28:14.507Z,0.8
2022-10-09T11:32:56.877Z,0.7
2022-10-09T11:37:39.197Z,0.3
2022-10-09T11:42:21.351Z,0.9
2022-10-09T11:47:03.657Z,0.6
2022-10-09T11:51:45.871Z,0.7
2022-10-09T11:56:28.182Z,0.5
2022-10-09T12:01:10.494Z,0.5
2022-10-09T12:05:52.753Z,0.9
2022-10-09T12:10:34.069Z,0.7
2022-10-09T12:15:16.335Z,0.6
2022-10-09T12:19:58.589Z,0.7
2022-10-09T12:24:41.000Z,0.7
2022-10-09T12:29:23.115Z,0.7
2022-10-09T12:34:05.435Z,0.7
2022-10-09T12:38:47.719Z,0.8
2022-10-09T12:43:29.116Z,0.8
2022-10-09T12:48:10.321Z,0.9
2022-10-09T12:52:52.644Z,0.7
2022-10-09T12:57:33.935Z,0.6
2022-10-09T13:02:15.246Z,1
2022-10-09T13:06:57.484Z,0.7
2022-10-09T13:11:39.769Z,1.2
2022-10-09T13:16:22.118Z,0.9
2022-10-09T13:21:04.303Z,0.4
2022-10-09T13:25:46.613Z,1.2
2022-10-09T13:30:28.920Z,0.5
2022-10-09T13:35:11.184Z,0.8
2022-10-09T13:39:53.495Z,0.6
2022-10-09T13:44:35.741Z,0.7
2022-10-09T13:49:18.070Z,1
2022-10-09T13:54:00.330Z,0.7
2022-10-09T13:58:42.678Z,0.9
2022-10-09T14:03:23.983Z,0.7
2022-10-09T14:08:06.164Z,0.6
2022-10-09T14:17:30.691Z,0.6
2022-10-09T14:22:12.954Z,1.2
2022-10-09T14:26:55.266Z,0.8
2022-10-09T14:31:37.582Z,0.6
2022-10-09T14:36:19.842Z,1.1
2022-10-09T14:41:01.203Z,1.1
2022-10-09T14:45:42.415Z,1.2
2022-10-09T14:50:24.741Z,0.6
2022-10-09T14:55:07.038Z,1.2
2022-10-09T14:59:49.247Z,1.1
2022-10-09T15:04:31.562Z,1.3
2022-10-09T15:09:13.775Z,0.9
2022-10-09T15:13:56.145Z,1.4
2022-10-09T15:18:38.347Z,1
2022-10-09T15:23:20.677Z,1.2
2022-10-09T15:28:02.922Z,1.5
2022-10-09T15:32:45.232Z,0.8
2022-10-09T15:37:27.452Z,1.6
2022-10-09T15:42:09.761Z,1.4
2022-10-09T15:46:51.068Z,1.2
2022-10-09T15:51:33.388Z,1.5
2022-10-09T15:56:15.592Z,1.3
2022-10-09T16:00:57.947Z,2.2
2022-10-09T16:05:40.228Z,1.6
2022-10-09T16:10:22.442Z,1.6
2022-10-09T16:15:04.742Z,1.5
2022-10-09T16:19:46.049Z,1.6
2022-10-09T16:24:27.363Z,2
2022-10-09T16:29:08.618Z,2.9
2022-10-09T16:33:49.926Z,1.8
2022-10-09T16:38:32.238Z,2
2022-10-09T16:43:14.555Z,2.2
2022-10-09T16:47:56.776Z,3.3
2022-10-09T16:52:39.077Z,3.2
2022-10-09T16:57:21.384Z,3.3
2022-10-09T17:02:03.596Z,3.8
2022-10-09T17:06:45.912Z,3.7
2022-10-09T17:11:28.221Z,3.8
2022-10-09T17:16:10.432Z,2.4
2022-10-09T17:20:52.744Z,3.1
2022-10-09T17:25:35.055Z,3
2022-10-09T17:30:17.295Z,2.6
2022-10-09T17:34:58.578Z,3.6
2022-10-09T17:39:40.890Z,2.4
2022-10-09T17:44:23.198Z,2.2
2022-10-09T17:49:05.413Z,1.7
2022-10-09T17:53:47.750Z,2
2022-10-09T17:58:30.033Z,1.4
2022-10-09T18:03:12.299Z,1.8
2022-10-09T18:07:53.562Z,1.7
2022-10-09T18:12:34.913Z,1.6
2022-10-09T18:17:16.224Z,1.7
2022-10-09T18:21:57.436Z,2
2022-10-09T18:26:39.749Z,1.7
2022-10-09T18:31:22.059Z,1.9
2022-10-09T18:36:04.267Z,1.6
2022-10-09T18:40:46.578Z,1.4
2022-10-09T18:45:28.847Z,1.8
2022-10-09T18:50:11.150Z,1.7
2022-10-09T18:54:53.411Z,2.2
2022-10-09T18:59:35.730Z,1.4
2022-10-09T19:04:17.987Z,1.6
2022-10-09T19:09:00.303Z,1.6
2022-10-09T19:13:42.514Z,1.6
2022-10-09T19:18:24.822Z,1.6
2022-10-09T19:23:06.132Z,2
2022-10-09T19:27:48.440Z,1.7
2022-10-09T19:32:30.653Z,1.6
2022-10-09T19:37:12.963Z,1.4
2022-10-09T19:41:55.274Z,1.9
2022-10-09T19:46:37.486Z,1.4
2022-10-09T19:51:19.803Z,1.3
2022-10-09T19:56:01.152Z,1.8
2022-10-09T20:00:42.371Z,0.9
2022-10-09T20:05:23.680Z,1
2022-10-09T20:10:04.988Z,1.1
2022-10-09T20:14:47.251Z,1.4
2022-10-09T20:19:29.561Z,2
2022-10-09T20:24:11.827Z,1.9
2022-10-09T20:28:54.141Z,1.8
2022-10-09T20:33:36.443Z,1.2
2022-10-09T20:38:18.656Z,2
2022-10-09T20:43:00.965Z,1.2
2022-10-09T20:47:43.227Z,1.4
2022-10-09T20:52:25.511Z,1.6
2022-10-09T20:57:07.823Z,1.6
2022-10-09T21:01:50.138Z,1.4
2022-10-09T21:06:32.350Z,1.3
2022-10-09T21:11:13.724Z,3.6
2022-10-09T21:15:55.922Z,1.3
2022-10-09T21:20:38.183Z,1.6
2022-10-09T21:25:20.502Z,1.2
2022-10-09T21:30:02.803Z,1.3
2022-10-09T21:34:45.111Z,1.7
2022-10-09T21:39:27.326Z,1.6
2022-10-09T21:44:08.638Z,1.1
2022-10-09T21:48:49.945Z,1.6
2022-10-09T21:53:31.254Z,1.2
2022-10-09T21:58:12.565Z,1.4
2022-10-09T22:02:54.877Z,1.2
2022-10-09T22:07:37.086Z,1.5
2022-10-09T22:12:19.406Z,1.9
2022-10-09T22:17:01.712Z,1.3
2022-10-09T22:21:43.920Z,1.7
2022-10-09T22:26:26.233Z,1.1
2022-10-09T22:31:08.544Z,1.5
2022-10-09T22:35:50.757Z,1.4
2022-10-09T22:40:33.070Z,1.5
2022-10-09T22:45:15.384Z,1.5
2022-10-09T22:49:57.591Z,1.6
2022-10-09T22:54:39.915Z,1.3
2022-10-09T22:59:21.209Z,1.2
2022-10-09T23:04:03.523Z,1.4
2022-10-09T23:08:45.735Z,1.7
2022-10-09T23:13:28.051Z,1.4
2022-10-09T23:18:10.356Z,1.4
2022-10-09T23:22:52.567Z,1.2
2022-10-09T23:27:34.882Z,1.6
2022-10-09T23:32:16.201Z,1.7
2022-10-09T23:36:57.506Z,1.5
2022-10-09T23:41:39.801Z,1.1
2022-10-09T23:46:22.089Z,1.5
2022-10-09T23:51:04.287Z,1.8
2022-10-09T23:55:45.604Z,1.9
